createdAt,value
2022-12-25T00:01:40.949Z,54.35
2022-12-25T00:04:43.147Z,55.08
2022-12-25T00:07:45.279Z,53.97
2022-12-25T00:10:47.423Z,55.13
2022-12-25T00:13:49.561Z,46.10
2022-12-25T00:16:51.733Z,61.65
2022-12-25T00:19:54.098Z,54.43
2022-12-25T00:22:56.283Z,50.78
2022-12-25T00:25:58.479Z,43.22
2022-12-25T00:29:01.194Z,46.35
2022-12-25T00:32:03.366Z,45.58
2022-12-25T00:35:05.805Z,45.25
2022-12-25T00:38:08.147Z,43.45
2022-12-25T00:41:11.597Z,40.17
2022-12-25T00:44:13.946Z,43.67
2022-12-25T00:47:16.965Z,38.95
2022-12-25T00:50:19.206Z,40.85
2022-12-25T00:53:21.562Z,40.42
2022-12-25T00:56:23.812Z,37.78
2022-12-25T00:59:25.985Z,35.88
2022-12-25T01:02:28.255Z,34.90
2022-12-25T01:05:30.496Z,38.90
2022-12-25T01:08:34.746Z,38.17
2022-12-25T01:11:36.990Z,37.78
2022-12-25T01:14:39.124Z,31.45
2022-12-25T01:17:42.123Z,28.00
2022-12-25T01:20:44.219Z,24.85
2022-12-25T01:23:46.704Z,19.90
2022-12-25T01:26:48.852Z,16.33
2022-12-25T01:29:51.012Z,18.40
2022-12-25T01:32:53.117Z,19.05
2022-12-25T01:35:55.283Z,18.92
2022-12-25T01:38:57.539Z,17.88
2022-12-25T01:41:59.809Z,18.20
2022-12-25T01:45:17.217Z,16.80
2022-12-25T01:48:23.340Z,19.27
2022-12-25T01:51:30.842Z,20.00
2022-12-25T01:54:56.429Z,20.35
2022-12-25T01:57:58.664Z,18.48
2022-12-25T02:01:00.811Z,19.17
2022-12-25T02:04:06.748Z,20.73
2022-12-25T02:07:10.579Z,21.77
2022-12-25T02:10:13.650Z,21.23
2022-12-25T02:13:16.964Z,21.10
2022-12-25T02:16:22.424Z,20.23
2022-12-25T02:19:57.556Z,19.95
2022-12-25T02:23:08.514Z,20.00
2022-12-25T02:26:17.223Z,19.88
2022-12-25T02:29:22.448Z,18.58
2022-12-25T02:32:44.851Z,14.43
2022-12-25T02:35:51.048Z,18.17
2022-12-25T02:39:14.425Z,19.53
2022-12-25T02:42:23.374Z,21.13
2022-12-25T02:45:47.347Z,21.05
2022-12-25T02:49:31.621Z,20.92
2022-12-25T02:52:52.561Z,17.70
2022-12-25T02:56:30.978Z,19.80
2022-12-25T02:59:54.503Z,18.77
2022-12-25T03:03:16.321Z,18.67
2022-12-25T03:06:38.395Z,19.33
2022-12-25T03:10:06.048Z,17.63
2022-12-25T03:13:16.921Z,18.53
2022-12-25T03:16:38.661Z,16.08
2022-12-25T03:19:59.760Z,17.55
2022-12-25T03:23:21.583Z,16.63
2022-12-25T03:26:43.924Z,16.17
2022-12-25T03:30:04.679Z,16.77
2022-12-25T03:33:43.176Z,18.67
2022-12-25T03:37:13.280Z,18.63
2022-12-25T03:40:40.319Z,18.98
2022-12-25T03:44:11.857Z,20.25
2022-12-25T03:47:42.150Z,18.63
2022-12-25T03:51:10.382Z,20.40
2022-12-25T03:54:31.630Z,19.73
2022-12-25T03:57:53.542Z,20.50
2022-12-25T04:01:14.319Z,18.50
2022-12-25T04:04:35.164Z,17.83
2022-12-25T04:07:55.776Z,18.75
2022-12-25T04:11:16.504Z,18.93
2022-12-25T04:14:37.369Z,16.48
2022-12-25T04:17:58.855Z,19.52
2022-12-25T04:21:19.790Z,16.20
2022-12-25T04:24:40.613Z,11.52
2022-12-25T04:28:01.399Z,13.23
2022-12-25T04:31:22.324Z,13.20
2022-12-25T04:34:43.064Z,12.93
2022-12-25T04:37:45.257Z,15.27
2022-12-25T04:40:47.447Z,19.48
2022-12-25T04:43:49.544Z,15.43
2022-12-25T04:46:51.786Z,20.98
2022-12-25T04:49:54.016Z,20.10
2022-12-25T04:52:56.173Z,28.52
2022-12-25T04:56:01.946Z,23.00
2022-12-25T04:59:04.661Z,23.85
2022-12-25T05:02:06.983Z,25.88
2022-12-25T05:05:09.191Z,17.10
2022-12-25T05:08:11.658Z,14.27
2022-12-25T05:11:14.872Z,14.13
2022-12-25T05:14:17.010Z,11.00
2022-12-25T05:17:19.373Z,10.75
2022-12-25T05:20:21.556Z,12.57
2022-12-25T05:23:23.652Z,11.15
2022-12-25T05:26:26.515Z,9.98
2022-12-25T05:29:28.628Z,15.13
2022-12-25T05:32:31.133Z,13.00
2022-12-25T05:35:33.360Z,14.27
2022-12-25T05:38:35.572Z,11.93
2022-12-25T05:41:37.692Z,10.52
2022-12-25T05:44:45.978Z,10.17
2022-12-25T05:47:48.110Z,10.43
2022-12-25T05:50:50.164Z,10.35
2022-12-25T05:53:52.292Z,10.70
2022-12-25T05:56:54.473Z,10.80
2022-12-25T05:59:56.625Z,16.15
2022-12-25T06:02:59.013Z,17.10
2022-12-25T06:06:02.711Z,13.30
2022-12-25T06:09:05.140Z,16.30
2022-12-25T06:12:07.651Z,15.25
2022-12-25T06:15:09.848Z,15.43
2022-12-25T06:18:11.945Z,15.25
2022-12-25T06:21:14.855Z,14.10
2022-12-25T06:24:21.248Z,15.68
2022-12-25T06:27:23.780Z,16.67
2022-12-25T06:30:25.910Z,16.38
2022-12-25T06:33:28.059Z,14.43
2022-12-25T06:36:30.106Z,14.47
2022-12-25T06:39:32.510Z,14.65
2022-12-25T06:42:34.683Z,16.40
2022-12-25T06:45:36.839Z,22.63
2022-12-25T06:48:40.172Z,25.05
2022-12-25T06:51:42.428Z,26.33
2022-12-25T06:54:44.527Z,28.15
2022-12-25T06:57:46.661Z,29.77
2022-12-25T07:00:48.827Z,23.88
2022-12-25T07:03:53.031Z,20.17
2022-12-25T07:06:55.154Z,16.73
2022-12-25T07:09:57.588Z,16.27
2022-12-25T07:12:59.725Z,14.60
2022-12-25T07:16:03.399Z,12.23
2022-12-25T07:19:05.533Z,14.70
2022-12-25T07:22:07.771Z,18.05
2022-12-25T07:25:09.871Z,16.23
2022-12-25T07:28:11.955Z,16.63
2022-12-25T07:31:14.896Z,17.30
2022-12-25T07:34:17.659Z,17.05
2022-12-25T07:37:19.745Z,15.93
2022-12-25T07:40:21.997Z,17.50
2022-12-25T07:43:24.261Z,15.93
2022-12-25T07:46:26.997Z,16.83
2022-12-25T07:49:29.315Z,15.00
2022-12-25T07:52:31.531Z,16.52
2022-12-25T07:55:34.014Z,16.27
2022-12-25T07:58:36.152Z,17.33
2022-12-25T08:01:38.480Z,16.00
2022-12-25T08:04:41.787Z,15.90
2022-12-25T08:07:43.893Z,15.70
2022-12-25T08:10:47.375Z,15.63
2022-12-25T08:13:49.510Z,15.57
2022-12-25T08:16:51.920Z,31.00
2022-12-25T08:19:54.164Z,23.10
2022-12-25T08:22:56.660Z,12.27
2022-12-25T08:26:04.533Z,11.20
2022-12-25T08:29:07.776Z,14.48
2022-12-25T08:32:10.205Z,13.95
2022-12-25T08:35:12.307Z,14.95
2022-12-25T08:38:14.485Z,16.83
2022-12-25T08:41:16.806Z,19.10
2022-12-25T08:44:18.960Z,18.27
2022-12-25T08:47:21.051Z,17.60
2022-12-25T08:50:24.116Z,16.63
2022-12-25T08:53:26.454Z,16.52
2022-12-25T08:56:28.735Z,16.60
2022-12-25T08:59:30.997Z,19.20
2022-12-25T09:02:33.628Z,19.58
2022-12-25T09:05:36.776Z,24.60
2022-12-25T09:08:45.977Z,18.13
2022-12-25T09:11:50.983Z,17.90
2022-12-25T09:14:53.336Z,18.02
2022-12-25T09:17:55.468Z,17.90
2022-12-25T09:21:07.714Z,18.90
2022-12-25T09:24:09.833Z,20.77
2022-12-25T09:27:11.995Z,12.40
2022-12-25T09:30:14.226Z,15.43
2022-12-25T09:33:16.361Z,24.45
2022-12-25T09:36:18.768Z,17.55
2022-12-25T09:39:21.048Z,21.38
2022-12-25T09:42:25.001Z,15.95
2022-12-25T09:45:28.418Z,27.30
2022-12-25T09:48:32.943Z,21.92
2022-12-25T09:51:35.975Z,24.37
2022-12-25T09:54:44.265Z,21.73
2022-12-25T09:57:49.529Z,19.45
2022-12-25T10:00:55.680Z,20.67
2022-12-25T10:04:06.087Z,20.80
2022-12-25T10:07:18.227Z,20.38
2022-12-25T10:10:20.391Z,19.08
2022-12-25T10:13:34.761Z,16.83
2022-12-25T10:16:55.730Z,16.25
2022-12-25T10:19:57.848Z,16.75
2022-12-25T10:23:01.881Z,18.00
2022-12-25T10:26:12.122Z,19.13
2022-12-25T10:29:15.766Z,17.30
2022-12-25T10:32:17.907Z,16.05
2022-12-25T10:35:24.657Z,16.13
2022-12-25T10:38:26.819Z,15.37
2022-12-25T10:41:42.921Z,18.30
2022-12-25T10:44:58.836Z,17.63
2022-12-25T10:48:07.406Z,17.83
2022-12-25T10:51:10.150Z,17.40
2022-12-25T10:54:23.233Z,17.40
2022-12-25T10:57:25.915Z,18.83
2022-12-25T11:00:29.831Z,18.87
2022-12-25T11:03:34.089Z,18.33
2022-12-25T11:06:36.399Z,19.60
2022-12-25T11:09:38.563Z,19.52
2022-12-25T11:12:42.909Z,21.47
2022-12-25T11:15:47.744Z,22.13
2022-12-25T11:18:51.531Z,16.45
2022-12-25T11:21:54.904Z,17.17
2022-12-25T11:24:57.116Z,18.00
2022-12-25T11:28:01.192Z,18.90
2022-12-25T11:31:23.183Z,17.25
2022-12-25T11:34:25.303Z,18.42
2022-12-25T11:37:34.679Z,19.20
2022-12-25T11:40:41.734Z,20.17
2022-12-25T11:43:53.602Z,19.55
2022-12-25T11:46:56.338Z,20.88
2022-12-25T11:50:23.558Z,21.03
2022-12-25T11:53:29.880Z,20.17
2022-12-25T11:56:33.059Z,19.30
2022-12-25T11:59:38.533Z,19.33
2022-12-25T12:02:46.115Z,18.50
2022-12-25T12:05:53.398Z,17.80
2022-12-25T12:09:06.650Z,16.67
2022-12-25T12:12:14.398Z,16.00
2022-12-25T12:15:19.340Z,16.02
2022-12-25T12:18:27.699Z,16.13
2022-12-25T12:21:30.982Z,16.98
2022-12-25T12:24:38.530Z,15.45
2022-12-25T12:27:41.055Z,15.43
2022-12-25T12:30:43.159Z,15.03
2022-12-25T12:33:56.084Z,15.45
2022-12-25T12:37:06.578Z,16.73
2022-12-25T12:40:21.649Z,18.00
2022-12-25T12:43:41.739Z,18.87
2022-12-25T12:46:51.423Z,15.63
2022-12-25T12:50:00.282Z,13.38
2022-12-25T12:53:26.752Z,16.92
2022-12-25T12:56:28.842Z,15.60
2022-12-25T12:59:40.068Z,12.73
2022-12-25T13:02:52.151Z,13.95
2022-12-25T13:05:57.298Z,14.32
2022-12-25T13:09:05.281Z,8.37
2022-12-25T13:12:08.277Z,17.33
2022-12-25T13:15:14.368Z,15.70
2022-12-25T13:18:16.871Z,14.90
2022-12-25T13:21:22.171Z,22.48
2022-12-25T13:24:26.253Z,15.85
2022-12-25T13:27:29.973Z,16.70
2022-12-25T13:30:32.158Z,16.77
2022-12-25T13:33:34.748Z,21.05
2022-12-25T13:36:37.843Z,21.95
2022-12-25T13:39:46.376Z,28.20
2022-12-25T13:42:49.426Z,31.53
2022-12-25T13:45:54.653Z,29.25
2022-12-25T13:49:00.469Z,28.88
2022-12-25T13:52:10.810Z,24.88
2022-12-25T13:55:18.817Z,23.93
2022-12-25T13:58:27.235Z,21.33
2022-12-25T14:01:29.562Z,20.58
2022-12-25T14:04:31.911Z,21.60
2022-12-25T14:07:35.385Z,22.10
2022-12-25T14:10:38.603Z,20.45
2022-12-25T14:13:41.744Z,24.85
2022-12-25T14:16:45.095Z,26.23
2022-12-25T14:19:55.782Z,29.63
2022-12-25T14:22:59.076Z,32.05
2022-12-25T14:26:01.208Z,34.30
2022-12-25T14:29:16.559Z,34.63
2022-12-25T14:32:22.116Z,34.25
2022-12-25T14:35:24.553Z,34.38
2022-12-25T14:38:28.515Z,35.38
2022-12-25T14:41:34.706Z,34.58
2022-12-25T14:44:41.050Z,31.67
2022-12-25T14:47:56.947Z,30.80
2022-12-25T14:51:00.971Z,32.40
2022-12-25T14:54:05.148Z,32.85
2022-12-25T14:57:07.275Z,38.65
2022-12-25T15:00:29.881Z,38.33
2022-12-25T15:03:36.381Z,27.40
2022-12-25T15:06:51.740Z,20.70
2022-12-25T15:10:18.600Z,19.40
2022-12-25T15:13:19.181Z,19.47
2022-12-25T15:16:44.665Z,16.52
2022-12-25T15:19:46.825Z,14.10
2022-12-25T15:23:17.781Z,12.07
2022-12-25T15:26:15.180Z,12.23
2022-12-25T15:29:27.585Z,12.55
2022-12-25T15:32:39.480Z,13.05
2022-12-25T15:35:44.300Z,15.90
2022-12-25T15:38:46.660Z,16.83
2022-12-25T15:42:08.139Z,15.15
2022-12-25T15:45:17.155Z,14.85
2022-12-25T15:48:19.341Z,15.70
2022-12-25T15:51:21.506Z,14.43
2022-12-25T15:54:23.692Z,15.57
2022-12-25T15:57:26.405Z,15.98
2022-12-25T16:00:28.985Z,16.23
2022-12-25T16:03:31.237Z,18.00
2022-12-25T16:06:33.399Z,15.65
2022-12-25T16:09:35.497Z,20.53
2022-12-25T16:12:39.030Z,16.42
2022-12-25T16:15:41.247Z,16.65
2022-12-25T16:18:47.377Z,19.63
2022-12-25T16:21:50.208Z,17.55
2022-12-25T16:24:52.615Z,19.75
2022-12-25T16:27:54.706Z,18.67
2022-12-25T16:30:56.877Z,19.33
2022-12-25T16:33:59.275Z,19.40
2022-12-25T16:37:01.364Z,21.83
2022-12-25T16:40:03.665Z,20.55
2022-12-25T16:43:05.855Z,21.13
2022-12-25T16:46:12.963Z,16.35
2022-12-25T16:49:15.165Z,19.48
2022-12-25T16:52:17.249Z,24.80
2022-12-25T16:55:19.802Z,22.33
2022-12-25T16:58:23.672Z,21.00
2022-12-25T17:01:25.952Z,11.55
2022-12-25T17:04:29.456Z,12.52
2022-12-25T17:07:31.574Z,15.20
2022-12-25T17:10:33.848Z,10.10
2022-12-25T17:13:36.129Z,8.97
2022-12-25T17:16:38.511Z,13.73
2022-12-25T17:19:41.440Z,7.53
2022-12-25T17:22:43.856Z,12.40
2022-12-25T17:25:46.021Z,16.70
2022-12-25T17:28:48.116Z,13.10
2022-12-25T17:31:50.629Z,15.95
2022-12-25T17:34:53.420Z,15.43
2022-12-25T17:37:55.506Z,9.70
2022-12-25T17:40:58.146Z,17.48
2022-12-25T17:44:00.295Z,18.27
2022-12-25T17:47:02.443Z,21.35
2022-12-25T17:50:04.881Z,21.42
2022-12-25T17:53:07.081Z,23.07
2022-12-25T17:56:09.863Z,20.30
2022-12-25T17:59:17.944Z,24.23
2022-12-25T18:02:20.679Z,22.80
2022-12-25T18:05:22.992Z,21.98
2022-12-25T18:08:25.171Z,21.92
2022-12-25T18:11:29.341Z,19.58
2022-12-25T18:14:31.524Z,21.43
2022-12-25T18:17:33.617Z,21.88
2022-12-25T18:20:39.879Z,19.23
2022-12-25T18:23:42.693Z,21.90
2022-12-25T18:26:45.813Z,23.33
2022-12-25T18:29:48.267Z,19.42
2022-12-25T18:32:50.572Z,20.45
2022-12-25T18:35:59.754Z,27.27
2022-12-25T18:39:02.682Z,28.58
2022-12-25T18:42:23.487Z,21.00
2022-12-25T18:45:25.742Z,21.00
2022-12-25T18:48:27.897Z,19.73
2022-12-25T18:51:36.618Z,17.13
2022-12-25T18:54:39.356Z,23.38
2022-12-25T18:57:42.069Z,19.95
2022-12-25T19:00:44.359Z,18.10
2022-12-25T19:03:48.968Z,19.65
2022-12-25T19:06:52.261Z,17.90
2022-12-25T19:09:54.443Z,12.20
2022-12-25T19:12:56.533Z,17.90
2022-12-25T19:15:59.379Z,18.27
2022-12-25T19:19:01.909Z,18.02
2022-12-25T19:22:04.145Z,19.25
2022-12-25T19:25:06.634Z,14.57
2022-12-25T19:28:08.706Z,15.02
2022-12-25T19:31:11.512Z,14.80
2022-12-25T19:34:13.782Z,13.93
2022-12-25T19:37:15.911Z,14.43
2022-12-25T19:40:18.371Z,16.45
2022-12-25T19:43:20.776Z,16.00
2022-12-25T19:46:24.721Z,15.87
2022-12-25T19:49:26.943Z,14.05
2022-12-25T19:52:29.576Z,12.25
2022-12-25T19:55:31.980Z,10.77
2022-12-25T19:58:34.113Z,11.30
2022-12-25T20:01:36.352Z,12.95
2022-12-25T20:04:38.726Z,11.32
2022-12-25T20:07:40.999Z,12.15
2022-12-25T20:10:46.640Z,13.57
2022-12-25T20:13:48.803Z,8.73
2022-12-25T20:16:51.049Z,11.98
2022-12-25T20:19:53.182Z,10.35
2022-12-25T20:22:55.444Z,10.38
2022-12-25T20:25:59.799Z,11.52
2022-12-25T20:29:04.323Z,12.10
2022-12-25T20:32:06.643Z,9.40
2022-12-25T20:35:09.236Z,11.00
2022-12-25T20:38:11.421Z,14.75
2022-12-25T20:41:31.176Z,19.13
2022-12-25T20:44:33.460Z,20.70
2022-12-25T20:47:35.657Z,16.75
2022-12-25T20:50:37.726Z,17.40
2022-12-25T20:53:39.778Z,13.98
2022-12-25T20:56:41.889Z,21.63
2022-12-25T20:59:44.003Z,28.70
2022-12-25T21:02:46.350Z,18.80
2022-12-25T21:05:55.695Z,17.40
2022-12-25T21:08:57.903Z,13.25
2022-12-25T21:12:00.111Z,13.53
2022-12-25T21:15:02.550Z,13.18
2022-12-25T21:18:04.780Z,13.10
2022-12-25T21:21:07.794Z,12.63
2022-12-25T21:24:10.664Z,11.67
2022-12-25T21:27:12.992Z,12.52
2022-12-25T21:30:15.969Z,13.80
2022-12-25T21:33:36.670Z,12.40
2022-12-25T21:36:41.255Z,14.02
2022-12-25T21:39:43.587Z,16.52
2022-12-25T21:42:46.266Z,15.13
2022-12-25T21:45:48.392Z,15.13
2022-12-25T21:48:50.909Z,14.13
2022-12-25T21:52:07.962Z,14.30
2022-12-25T21:55:10.175Z,15.77
2022-12-25T21:58:12.522Z,14.57
2022-12-25T22:01:17.549Z,14.48
2022-12-25T22:04:21.135Z,15.52
2022-12-25T22:07:23.197Z,15.27
2022-12-25T22:10:25.405Z,14.30
2022-12-25T22:13:47.345Z,14.25
2022-12-25T22:17:08.518Z,14.43
2022-12-25T22:20:13.204Z,16.35
2022-12-25T22:23:16.297Z,16.70
2022-12-25T22:26:20.966Z,16.00
2022-12-25T22:29:23.488Z,16.48
2022-12-25T22:32:25.855Z,14.77
2022-12-25T22:35:28.073Z,13.80
2022-12-25T22:38:30.565Z,13.45
2022-12-25T22:41:33.859Z,12.57
2022-12-25T22:44:36.230Z,12.57
2022-12-25T22:47:38.302Z,13.50
2022-12-25T22:50:40.495Z,13.85
2022-12-25T22:53:42.664Z,13.70
2022-12-25T22:56:45.286Z,14.97
2022-12-25T22:59:47.392Z,13.00
2022-12-25T23:02:49.941Z,13.50
2022-12-25T23:05:55.784Z,13.00
2022-12-25T23:08:58.037Z,13.55
2022-12-25T23:12:00.158Z,14.93
2022-12-25T23:15:02.218Z,14.40
2022-12-25T23:18:23.768Z,14.93
2022-12-25T23:21:45.039Z,16.17
2022-12-25T23:25:05.984Z,15.65
2022-12-25T23:28:09.436Z,15.40
2022-12-25T23:31:14.010Z,16.25
2022-12-25T23:34:16.193Z,15.07
2022-12-25T23:37:18.900Z,14.45
2022-12-25T23:40:21.238Z,15.10
2022-12-25T23:43:23.409Z,15.00
2022-12-25T23:46:25.659Z,15.60
2022-12-25T23:49:27.881Z,15.47
2022-12-25T23:52:30.118Z,15.27
2022-12-25T23:55:33.831Z,14.82
2022-12-25T23:58:36.520Z,15.75
